AAY1212 KLAN-KBMG
Flight info
| Callsign | AAY1212 |
|---|---|
| Flight time | 1h 1m |
| Altitude | 30000 |
| Route | FWA VHP |
| Aircraft | B738/M-SDE2E3FGHIRWXY/LB1 |
Departure
| Time | 2026-04-14 14:50 |
|---|---|
| Airport | Capital Region International Airport (KLAN) |
Arrival
| Time | 2026-04-14 15:52 |
|---|---|
| Airport | Monroe County Airport (KBMG) |
| Time | Latitude | Longitude | Altitude | Speed | Heading |
|---|---|---|---|---|---|
| 2026-04-14 14:29 | 42.77569 | -84.58893 | 852 ft | 0 kts | 181° |
| 2026-04-14 14:34 | 42.77567 | -84.58993 | 852 ft | 0 kts | 180° |
| 2026-04-14 14:42 | 42.77571 | -84.58993 | 852 ft | 2 kts | 180° |
| 2026-04-14 14:42 | 42.77586 | -84.58993 | 852 ft | 2 kts | 180° |
| 2026-04-14 14:43 | 42.77596 | -84.58993 | 852 ft | 1 kts | 181° |
| 2026-04-14 14:43 | 42.77610 | -84.58997 | 852 ft | 2 kts | 145° |
| 2026-04-14 14:43 | 42.77620 | -84.59012 | 852 ft | 2 kts | 115° |
| 2026-04-14 14:43 | 42.77624 | -84.59026 | 852 ft | 0 kts | 94° |
| 2026-04-14 14:44 | 42.77623 | -84.59036 | 852 ft | 0 kts | 90° |
| 2026-04-14 14:45 | 42.77623 | -84.59026 | 852 ft | 3 kts | 90° |
| 2026-04-14 14:45 | 42.77630 | -84.58961 | 852 ft | 10 kts | 52° |
| 2026-04-14 14:45 | 42.77690 | -84.58895 | 852 ft | 14 kts | 82° |
| 2026-04-14 14:46 | 42.77689 | -84.58725 | 852 ft | 21 kts | 90° |
| 2026-04-14 14:46 | 42.77686 | -84.58493 | 851 ft | 27 kts | 91° |
| 2026-04-14 14:46 | 42.77683 | -84.58215 | 848 ft | 28 kts | 90° |
| 2026-04-14 14:46 | 42.77679 | -84.57941 | 845 ft | 29 kts | 89° |
| 2026-04-14 14:47 | 42.77681 | -84.57667 | 845 ft | 28 kts | 88° |
| 2026-04-14 14:47 | 42.77676 | -84.57404 | 845 ft | 27 kts | 93° |
| 2026-04-14 14:47 | 42.77675 | -84.57142 | 845 ft | 27 kts | 89° |
| 2026-04-14 14:47 | 42.77708 | -84.56968 | 844 ft | 0 kts | 12° |
| 2026-04-14 14:48 | 42.77710 | -84.56967 | 844 ft | 1 kts | 13° |
| 2026-04-14 14:48 | 42.77732 | -84.56960 | 844 ft | 5 kts | 12° |
| 2026-04-14 14:49 | 42.77777 | -84.56964 | 844 ft | 7 kts | 332° |
| 2026-04-14 14:49 | 42.77797 | -84.57037 | 845 ft | 9 kts | 271° |
| 2026-04-14 14:49 | 42.77797 | -84.57221 | 845 ft | 53 kts | 269° |
| 2026-04-14 14:49 | 42.77803 | -84.58199 | 847 ft | 148 kts | 270° |
| 2026-04-14 14:50 | 42.77816 | -84.59692 | 872 ft | 159 kts | 269° |
| 2026-04-14 14:50 | 42.77845 | -84.61163 | 1017 ft | 154 kts | 269° |
| 2026-04-14 14:50 | 42.77859 | -84.62798 | 1400 ft | 192 kts | 269° |
| 2026-04-14 14:50 | 42.77869 | -84.64663 | 1755 ft | 201 kts | 268° |
| 2026-04-14 14:51 | 42.77874 | -84.66579 | 1860 ft | 201 kts | 268° |
| 2026-04-14 14:51 | 42.77767 | -84.68435 | 2032 ft | 195 kts | 255° |
| 2026-04-14 14:51 | 42.77410 | -84.70287 | 2324 ft | 213 kts | 253° |
| 2026-04-14 14:51 | 42.76997 | -84.72247 | 2704 ft | 214 kts | 253° |
| 2026-04-14 14:52 | 42.76579 | -84.74171 | 3391 ft | 217 kts | 252° |
| 2026-04-14 14:52 | 42.76138 | -84.76180 | 4053 ft | 228 kts | 252° |
| 2026-04-14 14:52 | 42.75681 | -84.78247 | 4720 ft | 230 kts | 252° |
| 2026-04-14 14:52 | 42.75220 | -84.80334 | 5371 ft | 231 kts | 252° |
| 2026-04-14 14:53 | 42.74765 | -84.82388 | 6003 ft | 231 kts | 252° |
| 2026-04-14 14:53 | 42.74304 | -84.84469 | 6631 ft | 232 kts | 252° |
| 2026-04-14 14:53 | 42.73843 | -84.86547 | 7254 ft | 233 kts | 252° |
| 2026-04-14 14:53 | 42.73376 | -84.88649 | 7882 ft | 234 kts | 252° |
| 2026-04-14 14:54 | 42.72914 | -84.90726 | 8501 ft | 235 kts | 252° |
| 2026-04-14 14:54 | 42.72445 | -84.92835 | 9127 ft | 235 kts | 252° |
| 2026-04-14 14:54 | 42.71981 | -84.94914 | 9741 ft | 236 kts | 252° |
| 2026-04-14 14:54 | 42.71506 | -84.97048 | 10369 ft | 237 kts | 252° |
| 2026-04-14 14:55 | 42.71035 | -84.99159 | 10989 ft | 238 kts | 252° |
| 2026-04-14 14:55 | 42.70557 | -85.01307 | 11618 ft | 238 kts | 252° |
| 2026-04-14 14:55 | 42.70080 | -85.03441 | 12242 ft | 239 kts | 252° |
| 2026-04-14 14:55 | 42.69603 | -85.05575 | 12864 ft | 240 kts | 251° |
| 2026-04-14 14:56 | 42.68627 | -85.09930 | 14127 ft | 243 kts | 251° |
| 2026-04-14 14:56 | 42.68140 | -85.12099 | 14751 ft | 245 kts | 251° |
| 2026-04-14 14:56 | 42.67405 | -85.14163 | 15360 ft | 244 kts | 232° |
| 2026-04-14 14:57 | 42.66106 | -85.15655 | 16004 ft | 250 kts | 214° |
| 2026-04-14 14:57 | 42.64503 | -85.16540 | 16621 ft | 260 kts | 198° |
| 2026-04-14 14:57 | 42.62688 | -85.16745 | 17279 ft | 268 kts | 190° |
| 2026-04-14 14:57 | 42.60822 | -85.16805 | 17920 ft | 272 kts | 189° |
| 2026-04-14 14:58 | 42.58936 | -85.16836 | 18551 ft | 275 kts | 189° |
| 2026-04-14 14:58 | 42.57039 | -85.16860 | 19175 ft | 278 kts | 189° |
| 2026-04-14 14:58 | 42.55126 | -85.16885 | 19792 ft | 281 kts | 189° |
| 2026-04-14 14:58 | 42.53172 | -85.16910 | 20416 ft | 284 kts | 189° |
| 2026-04-14 14:59 | 42.51215 | -85.16934 | 21036 ft | 287 kts | 189° |
| 2026-04-14 14:59 | 42.49229 | -85.16959 | 21662 ft | 290 kts | 189° |
| 2026-04-14 14:59 | 42.47207 | -85.16984 | 22294 ft | 294 kts | 189° |
| 2026-04-14 14:59 | 42.45178 | -85.17010 | 22921 ft | 297 kts | 189° |
| 2026-04-14 15:00 | 42.43130 | -85.17035 | 23546 ft | 301 kts | 190° |
| 2026-04-14 15:00 | 42.41051 | -85.17061 | 24172 ft | 305 kts | 190° |
| 2026-04-14 15:00 | 42.38945 | -85.17087 | 24801 ft | 307 kts | 190° |
| 2026-04-14 15:00 | 42.36826 | -85.17114 | 25427 ft | 312 kts | 190° |
| 2026-04-14 15:01 | 42.34761 | -85.17139 | 26028 ft | 316 kts | 190° |
| 2026-04-14 15:01 | 42.32655 | -85.17166 | 26558 ft | 319 kts | 190° |
| 2026-04-14 15:01 | 42.30413 | -85.17206 | 26493 ft | 343 kts | 189° |
| 2026-04-14 15:01 | 42.27972 | -85.17239 | 26594 ft | 364 kts | 189° |
| 2026-04-14 15:02 | 42.25405 | -85.17271 | 26747 ft | 384 kts | 189° |
| 2026-04-14 15:02 | 42.22689 | -85.17303 | 26922 ft | 402 kts | 188° |
| 2026-04-14 15:02 | 42.19898 | -85.17332 | 27472 ft | 410 kts | 188° |
| 2026-04-14 15:02 | 42.17085 | -85.17361 | 28114 ft | 415 kts | 188° |
| 2026-04-14 15:03 | 42.14222 | -85.17395 | 28777 ft | 418 kts | 189° |
| 2026-04-14 15:03 | 42.11420 | -85.17426 | 29570 ft | 417 kts | 189° |
| 2026-04-14 15:03 | 42.08537 | -85.17464 | 29955 ft | 425 kts | 189° |
| 2026-04-14 15:03 | 42.05595 | -85.17509 | 29977 ft | 443 kts | 188° |
| 2026-04-14 15:04 | 41.99464 | -85.17580 | 30024 ft | 454 kts | 188° |
| 2026-04-14 15:04 | 41.93254 | -85.17652 | 29967 ft | 451 kts | 188° |
| 2026-04-14 15:05 | 41.87207 | -85.17725 | 29970 ft | 451 kts | 188° |
| 2026-04-14 15:05 | 41.80960 | -85.17803 | 29973 ft | 451 kts | 188° |
| 2026-04-14 15:06 | 41.74797 | -85.17879 | 29971 ft | 452 kts | 188° |
| 2026-04-14 15:06 | 41.69004 | -85.17950 | 29978 ft | 452 kts | 188° |
| 2026-04-14 15:07 | 41.62355 | -85.18029 | 29984 ft | 452 kts | 188° |
| 2026-04-14 15:07 | 41.56172 | -85.18105 | 29987 ft | 451 kts | 188° |
| 2026-04-14 15:08 | 41.49912 | -85.18180 | 29989 ft | 451 kts | 188° |
| 2026-04-14 15:08 | 41.43646 | -85.18258 | 29991 ft | 451 kts | 188° |
| 2026-04-14 15:09 | 41.37367 | -85.18333 | 29987 ft | 453 kts | 188° |
| 2026-04-14 15:09 | 41.31091 | -85.18409 | 29989 ft | 450 kts | 188° |
| 2026-04-14 15:10 | 41.24849 | -85.18484 | 29992 ft | 452 kts | 188° |
| 2026-04-14 15:10 | 41.18581 | -85.18559 | 29997 ft | 451 kts | 188° |
| 2026-04-14 15:11 | 41.12330 | -85.18634 | 30000 ft | 452 kts | 188° |
| 2026-04-14 15:11 | 41.06010 | -85.18708 | 30003 ft | 458 kts | 189° |
| 2026-04-14 15:12 | 40.99735 | -85.19257 | 30019 ft | 454 kts | 196° |
| 2026-04-14 15:12 | 40.96706 | -85.20258 | 29995 ft | 443 kts | 208° |
| 2026-04-14 15:12 | 40.94024 | -85.22096 | 29990 ft | 430 kts | 221° |
| 2026-04-14 15:13 | 40.89604 | -85.27229 | 30005 ft | 426 kts | 227° |
| 2026-04-14 15:13 | 40.84982 | -85.32148 | 30004 ft | 426 kts | 225° |
| 2026-04-14 15:14 | 40.80331 | -85.36948 | 30003 ft | 427 kts | 225° |
| 2026-04-14 15:14 | 40.75660 | -85.41754 | 30000 ft | 427 kts | 225° |
| 2026-04-14 15:15 | 40.71001 | -85.46532 | 30003 ft | 427 kts | 225° |
| 2026-04-14 15:15 | 40.66320 | -85.51327 | 30001 ft | 427 kts | 225° |
| 2026-04-14 15:16 | 40.61640 | -85.56116 | 30013 ft | 425 kts | 225° |
| 2026-04-14 15:16 | 40.56992 | -85.60858 | 30015 ft | 426 kts | 225° |
| 2026-04-14 15:17 | 40.52291 | -85.65646 | 30018 ft | 428 kts | 224° |
| 2026-04-14 15:17 | 40.47706 | -85.70297 | 29997 ft | 399 kts | 224° |
| 2026-04-14 15:18 | 40.45618 | -85.72414 | 30005 ft | 381 kts | 225° |
| 2026-04-14 15:18 | 40.43551 | -85.74519 | 30038 ft | 381 kts | 225° |
| 2026-04-14 15:18 | 40.39280 | -85.78858 | 30030 ft | 393 kts | 225° |
| 2026-04-14 15:19 | 40.35002 | -85.83185 | 29817 ft | 396 kts | 225° |
| 2026-04-14 15:19 | 40.32890 | -85.85325 | 29122 ft | 398 kts | 224° |
| 2026-04-14 15:19 | 40.30798 | -85.87434 | 28551 ft | 394 kts | 224° |
| 2026-04-14 15:20 | 40.28742 | -85.89506 | 28200 ft | 393 kts | 224° |
| 2026-04-14 15:20 | 40.26675 | -85.91594 | 27557 ft | 393 kts | 224° |
| 2026-04-14 15:20 | 40.24558 | -85.93726 | 26930 ft | 388 kts | 224° |
| 2026-04-14 15:20 | 40.22440 | -85.95856 | 26305 ft | 382 kts | 223° |
| 2026-04-14 15:21 | 40.20385 | -85.97923 | 25710 ft | 376 kts | 223° |
| 2026-04-14 15:21 | 40.18344 | -85.99973 | 25131 ft | 371 kts | 223° |
| 2026-04-14 15:21 | 40.16343 | -86.01982 | 24581 ft | 368 kts | 223° |
| 2026-04-14 15:21 | 40.14330 | -86.04001 | 24035 ft | 365 kts | 223° |
| 2026-04-14 15:22 | 40.12349 | -86.05989 | 23503 ft | 362 kts | 223° |
| 2026-04-14 15:22 | 40.10344 | -86.07998 | 22974 ft | 360 kts | 222° |
| 2026-04-14 15:22 | 40.08392 | -86.09952 | 22466 ft | 357 kts | 222° |
| 2026-04-14 15:22 | 40.06450 | -86.11895 | 21967 ft | 354 kts | 222° |
| 2026-04-14 15:23 | 40.04501 | -86.13844 | 21479 ft | 350 kts | 221° |
| 2026-04-14 15:23 | 40.02606 | -86.15736 | 21011 ft | 347 kts | 221° |
| 2026-04-14 15:23 | 40.00709 | -86.17630 | 20552 ft | 345 kts | 221° |
| 2026-04-14 15:23 | 39.98814 | -86.19520 | 20102 ft | 343 kts | 221° |
| 2026-04-14 15:24 | 39.96927 | -86.21400 | 19661 ft | 341 kts | 221° |
| 2026-04-14 15:24 | 39.95059 | -86.23260 | 19233 ft | 339 kts | 221° |
| 2026-04-14 15:24 | 39.93206 | -86.25105 | 18817 ft | 337 kts | 221° |
| 2026-04-14 15:24 | 39.91355 | -86.26945 | 18410 ft | 335 kts | 220° |
| 2026-04-14 15:25 | 39.89494 | -86.28795 | 18010 ft | 334 kts | 220° |
| 2026-04-14 15:25 | 39.87669 | -86.30608 | 17634 ft | 332 kts | 220° |
| 2026-04-14 15:25 | 39.85852 | -86.32411 | 17261 ft | 330 kts | 220° |
| 2026-04-14 15:25 | 39.84029 | -86.34190 | 16883 ft | 329 kts | 217° |
| 2026-04-14 15:26 | 39.81926 | -86.35428 | 16437 ft | 336 kts | 200° |
| 2026-04-14 15:26 | 39.79617 | -86.35794 | 16028 ft | 342 kts | 186° |
| 2026-04-14 15:26 | 39.77271 | -86.35579 | 15667 ft | 343 kts | 180° |
| 2026-04-14 15:26 | 39.74924 | -86.35171 | 15281 ft | 342 kts | 178° |
| 2026-04-14 15:27 | 39.72569 | -86.34686 | 14895 ft | 340 kts | 177° |
| 2026-04-14 15:27 | 39.70242 | -86.34175 | 14513 ft | 339 kts | 176° |
| 2026-04-14 15:27 | 39.67962 | -86.33665 | 14139 ft | 336 kts | 176° |
| 2026-04-14 15:27 | 39.65654 | -86.33144 | 13761 ft | 334 kts | 176° |
| 2026-04-14 15:28 | 39.63403 | -86.32632 | 13365 ft | 326 kts | 176° |
| 2026-04-14 15:28 | 39.61206 | -86.32134 | 12923 ft | 324 kts | 176° |
| 2026-04-14 15:28 | 39.58983 | -86.31631 | 12568 ft | 326 kts | 176° |
| 2026-04-14 15:28 | 39.56733 | -86.31120 | 12229 ft | 327 kts | 175° |
| 2026-04-14 15:29 | 39.54501 | -86.30614 | 11887 ft | 327 kts | 175° |
| 2026-04-14 15:29 | 39.52282 | -86.30110 | 11544 ft | 328 kts | 175° |
| 2026-04-14 15:29 | 39.50032 | -86.29600 | 11194 ft | 329 kts | 175° |
| 2026-04-14 15:29 | 39.47770 | -86.29089 | 10841 ft | 329 kts | 175° |
| 2026-04-14 15:30 | 39.45510 | -86.28577 | 10488 ft | 330 kts | 175° |
| 2026-04-14 15:30 | 39.43264 | -86.28096 | 10065 ft | 331 kts | 178° |
| 2026-04-14 15:30 | 39.40989 | -86.28267 | 9444 ft | 330 kts | 195° |
| 2026-04-14 15:30 | 39.38878 | -86.29333 | 8978 ft | 328 kts | 211° |
| 2026-04-14 15:31 | 39.37117 | -86.31177 | 8551 ft | 326 kts | 228° |
| 2026-04-14 15:31 | 39.35888 | -86.33586 | 8162 ft | 326 kts | 244° |
| 2026-04-14 15:31 | 39.35269 | -86.36416 | 7781 ft | 329 kts | 260° |
| 2026-04-14 15:31 | 39.35337 | -86.39297 | 7365 ft | 307 kts | 277° |
| 2026-04-14 15:32 | 39.35901 | -86.41795 | 6917 ft | 276 kts | 278° |
| 2026-04-14 15:32 | 39.36035 | -86.44106 | 6645 ft | 238 kts | 268° |
| 2026-04-14 15:32 | 39.36048 | -86.46074 | 6437 ft | 208 kts | 266° |
| 2026-04-14 15:32 | 39.36044 | -86.47843 | 6199 ft | 186 kts | 266° |
| 2026-04-14 15:33 | 39.36039 | -86.49448 | 5998 ft | 173 kts | 266° |
| 2026-04-14 15:33 | 39.36029 | -86.51001 | 5892 ft | 174 kts | 266° |
| 2026-04-14 15:33 | 39.36019 | -86.52572 | 5789 ft | 181 kts | 265° |
| 2026-04-14 15:33 | 39.36013 | -86.54153 | 5623 ft | 181 kts | 264° |
| 2026-04-14 15:34 | 39.35876 | -86.55751 | 5413 ft | 178 kts | 259° |
| 2026-04-14 15:34 | 39.35714 | -86.57317 | 5214 ft | 175 kts | 258° |
| 2026-04-14 15:34 | 39.35534 | -86.58890 | 5012 ft | 177 kts | 259° |
| 2026-04-14 15:34 | 39.35363 | -86.60438 | 4817 ft | 175 kts | 258° |
| 2026-04-14 15:35 | 39.35186 | -86.62009 | 4626 ft | 177 kts | 259° |
| 2026-04-14 15:35 | 39.34817 | -86.63467 | 4379 ft | 171 kts | 237° |
| 2026-04-14 15:35 | 39.33885 | -86.64599 | 3287 ft | 213 kts | 212° |
| 2026-04-14 15:35 | 39.32418 | -86.65095 | 2630 ft | 223 kts | 184° |
| 2026-04-14 15:36 | 39.30940 | -86.64768 | 2507 ft | 210 kts | 171° |
| 2026-04-14 15:36 | 39.29564 | -86.64439 | 2368 ft | 194 kts | 174° |
| 2026-04-14 15:36 | 39.28286 | -86.64175 | 2247 ft | 176 kts | 175° |
| 2026-04-14 15:36 | 39.27118 | -86.63947 | 2070 ft | 162 kts | 175° |
| 2026-04-14 15:37 | 39.26063 | -86.63744 | 1938 ft | 150 kts | 175° |
| 2026-04-14 15:37 | 39.25043 | -86.63546 | 1860 ft | 145 kts | 178° |
| 2026-04-14 15:37 | 39.23983 | -86.63359 | 1851 ft | 158 kts | 177° |
| 2026-04-14 15:37 | 39.23125 | -86.63187 | 1843 ft | 158 kts | 176° |
| 2026-04-14 15:38 | 39.22065 | -86.62986 | 1794 ft | 159 kts | 176° |
| 2026-04-14 15:38 | 39.20969 | -86.62790 | 1731 ft | 161 kts | 176° |
| 2026-04-14 15:38 | 39.19880 | -86.62579 | 1656 ft | 157 kts | 176° |
| 2026-04-14 15:38 | 39.18785 | -86.62375 | 1556 ft | 158 kts | 176° |
| 2026-04-14 15:39 | 39.17711 | -86.62175 | 1253 ft | 157 kts | 176° |
| 2026-04-14 15:39 | 39.16663 | -86.61976 | 1005 ft | 150 kts | 176° |
| 2026-04-14 15:39 | 39.15647 | -86.61785 | 882 ft | 146 kts | 176° |
| 2026-04-14 15:39 | 39.14630 | -86.61602 | 845 ft | 149 kts | 182° |
| 2026-04-14 15:40 | 39.13766 | -86.61430 | 952 ft | 131 kts | 172° |
| 2026-04-14 15:40 | 39.12831 | -86.61083 | 1455 ft | 145 kts | 173° |
| 2026-04-14 15:40 | 39.11788 | -86.60926 | 1850 ft | 155 kts | 177° |
| 2026-04-14 15:40 | 39.10701 | -86.60759 | 1883 ft | 155 kts | 180° |
| 2026-04-14 15:41 | 39.09724 | -86.61123 | 1951 ft | 151 kts | 217° |
| 2026-04-14 15:41 | 39.09106 | -86.62291 | 2303 ft | 171 kts | 250° |
| 2026-04-14 15:41 | 39.09084 | -86.63860 | 2645 ft | 186 kts | 278° |
| 2026-04-14 15:41 | 39.09729 | -86.65346 | 2940 ft | 201 kts | 305° |
| 2026-04-14 15:42 | 39.10890 | -86.66482 | 3018 ft | 211 kts | 321° |
| 2026-04-14 15:42 | 39.12101 | -86.67544 | 3001 ft | 210 kts | 321° |
| 2026-04-14 15:42 | 39.13327 | -86.68595 | 3002 ft | 208 kts | 321° |
| 2026-04-14 15:42 | 39.14589 | -86.69520 | 2974 ft | 219 kts | 335° |
| 2026-04-14 15:43 | 39.16068 | -86.69913 | 3008 ft | 217 kts | 345° |
| 2026-04-14 15:43 | 39.17575 | -86.70236 | 3002 ft | 217 kts | 346° |
| 2026-04-14 15:43 | 39.19064 | -86.70583 | 3004 ft | 220 kts | 344° |
| 2026-04-14 15:43 | 39.20563 | -86.70892 | 2993 ft | 217 kts | 346° |
| 2026-04-14 15:44 | 39.22058 | -86.71208 | 3000 ft | 219 kts | 347° |
| 2026-04-14 15:44 | 39.23548 | -86.71549 | 2974 ft | 217 kts | 345° |
| 2026-04-14 15:44 | 39.25050 | -86.71874 | 2936 ft | 223 kts | 345° |
| 2026-04-14 15:44 | 39.26597 | -86.72220 | 2795 ft | 222 kts | 346° |
| 2026-04-14 15:45 | 39.28085 | -86.72552 | 2932 ft | 216 kts | 346° |
| 2026-04-14 15:45 | 39.29720 | -86.72916 | 3021 ft | 254 kts | 347° |
| 2026-04-14 15:45 | 39.31462 | -86.73323 | 3001 ft | 252 kts | 346° |
| 2026-04-14 15:45 | 39.33175 | -86.73734 | 2991 ft | 251 kts | 346° |
| 2026-04-14 15:46 | 39.34900 | -86.74136 | 2996 ft | 248 kts | 346° |
| 2026-04-14 15:46 | 39.36599 | -86.74338 | 2985 ft | 251 kts | 3° |
| 2026-04-14 15:46 | 39.38179 | -86.73717 | 2947 ft | 230 kts | 27° |
| 2026-04-14 15:46 | 39.39308 | -86.72315 | 2942 ft | 224 kts | 65° |
| 2026-04-14 15:47 | 39.39490 | -86.70371 | 2996 ft | 223 kts | 108° |
| 2026-04-14 15:47 | 39.38858 | -86.68556 | 3018 ft | 221 kts | 124° |
| 2026-04-14 15:47 | 39.38098 | -86.66816 | 3007 ft | 219 kts | 123° |
| 2026-04-14 15:47 | 39.37328 | -86.65123 | 2993 ft | 220 kts | 131° |
| 2026-04-14 15:48 | 39.36232 | -86.63902 | 2983 ft | 194 kts | 160° |
| 2026-04-14 15:48 | 39.35009 | -86.63565 | 2900 ft | 179 kts | 188° |
| 2026-04-14 15:48 | 39.33850 | -86.64007 | 2815 ft | 183 kts | 205° |
| 2026-04-14 15:48 | 39.32606 | -86.64509 | 2736 ft | 190 kts | 192° |
| 2026-04-14 15:49 | 39.31280 | -86.64571 | 2660 ft | 191 kts | 181° |
| 2026-04-14 15:49 | 39.29951 | -86.64428 | 2556 ft | 193 kts | 177° |
| 2026-04-14 15:49 | 39.28628 | -86.64206 | 2516 ft | 192 kts | 178° |
| 2026-04-14 15:49 | 39.27303 | -86.63974 | 2490 ft | 196 kts | 176° |
| 2026-04-14 15:50 | 39.25969 | -86.63724 | 2381 ft | 192 kts | 177° |
| 2026-04-14 15:50 | 39.24670 | -86.63481 | 2362 ft | 193 kts | 175° |
| 2026-04-14 15:50 | 39.23345 | -86.63236 | 2363 ft | 188 kts | 174° |
| 2026-04-14 15:50 | 39.22146 | -86.62999 | 2279 ft | 162 kts | 177° |
| 2026-04-14 15:51 | 39.21066 | -86.62804 | 1925 ft | 156 kts | 176° |
| 2026-04-14 15:51 | 39.20024 | -86.62598 | 1589 ft | 147 kts | 177° |
| 2026-04-14 15:51 | 39.19031 | -86.62308 | 1377 ft | 152 kts | 171° |
| 2026-04-14 15:51 | 39.17861 | -86.62054 | 1360 ft | 183 kts | 180° |
| 2026-04-14 15:52 | 39.16621 | -86.61911 | 1067 ft | 173 kts | 174° |
| 2026-04-14 15:52 | 39.15530 | -86.61745 | 840 ft | 147 kts | 179° |
| 2026-04-14 15:52 | 39.14817 | -86.61643 | 845 ft | 45 kts | 165° |
| 2026-04-14 15:52 | 39.14747 | -86.61620 | 844 ft | 10 kts | 166° |
| 2026-04-14 15:53 | 39.14630 | -86.61588 | 843 ft | 22 kts | 169° |
| 2026-04-14 15:53 | 39.14561 | -86.61476 | 844 ft | 16 kts | 62° |
| 2026-04-14 15:53 | 39.14638 | -86.61449 | 846 ft | 9 kts | 354° |
| 2026-04-14 15:53 | 39.14691 | -86.61456 | 846 ft | 5 kts | 8° |
| 2026-04-14 15:54 | 39.14754 | -86.61373 | 849 ft | 16 kts | 15° |
| 2026-04-14 15:54 | 39.14927 | -86.61372 | 853 ft | 20 kts | 23° |
| 2026-04-14 15:54 | 39.14940 | -86.61334 | 854 ft | 0 kts | 90° |